sensor_id;sensor_type;location;lat;lon;timestamp;P1;durP1;ratioP1;P2;durP2;ratioP2
43519;SDS011;46848;51.980;5.918;2023-12-22T00:00:17;7.20;;;1.47;;
43519;SDS011;46848;51.980;5.918;2023-12-22T00:02:43;8.97;;;2.37;;
43519;SDS011;46848;51.980;5.918;2023-12-22T00:05:08;9.20;;;2.00;;
43519;SDS011;46848;51.980;5.918;2023-12-22T00:07:34;9.13;;;1.80;;
43519;SDS011;46848;51.980;5.918;2023-12-22T00:10:00;8.27;;;1.87;;
43519;SDS011;46848;51.980;5.918;2023-12-22T00:12:25;6.17;;;1.50;;
43519;SDS011;46848;51.980;5.918;2023-12-22T00:14:51;10.90;;;1.90;;
43519;SDS011;46848;51.980;5.918;2023-12-22T00:17:17;6.83;;;1.80;;
43519;SDS011;46848;51.980;5.918;2023-12-22T00:19:44;8.90;;;1.77;;
43519;SDS011;46848;51.980;5.918;2023-12-22T00:22:09;6.03;;;1.50;;
43519;SDS011;46848;51.980;5.918;2023-12-22T00:24:35;5.70;;;1.40;;
43519;SDS011;46848;51.980;5.918;2023-12-22T00:27:00;7.53;;;1.53;;
43519;SDS011;46848;51.980;5.918;2023-12-22T00:29:27;9.83;;;1.63;;
43519;SDS011;46848;51.980;5.918;2023-12-22T00:31:53;10.37;;;1.50;;
43519;SDS011;46848;51.980;5.918;2023-12-22T00:34:21;5.83;;;1.63;;
43519;SDS011;46848;51.980;5.918;2023-12-22T00:36:47;7.07;;;1.90;;
43519;SDS011;46848;51.980;5.918;2023-12-22T00:39:12;6.57;;;1.43;;
43519;SDS011;46848;51.980;5.918;2023-12-22T00:41:38;6.30;;;1.30;;
43519;SDS011;46848;51.980;5.918;2023-12-22T00:44:04;6.70;;;1.20;;
43519;SDS011;46848;51.980;5.918;2023-12-22T00:46:30;5.13;;;1.00;;
43519;SDS011;46848;51.980;5.918;2023-12-22T00:48:56;5.73;;;1.17;;
43519;SDS011;46848;51.980;5.918;2023-12-22T00:51:22;6.50;;;1.03;;
43519;SDS011;46848;51.980;5.918;2023-12-22T00:53:48;4.60;;;1.00;;
43519;SDS011;46848;51.980;5.918;2023-12-22T00:56:13;4.90;;;1.10;;
43519;SDS011;46848;51.980;5.918;2023-12-22T00:58:39;5.27;;;0.90;;
43519;SDS011;46848;51.980;5.918;2023-12-22T01:01:05;3.10;;;0.70;;
43519;SDS011;46848;51.980;5.918;2023-12-22T01:03:31;2.70;;;0.80;;
43519;SDS011;46848;51.980;5.918;2023-12-22T01:05:56;5.43;;;1.13;;
43519;SDS011;46848;51.980;5.918;2023-12-22T01:08:22;5.93;;;1.07;;
43519;SDS011;46848;51.980;5.918;2023-12-22T01:10:48;3.10;;;1.20;;
43519;SDS011;46848;51.980;5.918;2023-12-22T01:13:13;4.10;;;0.83;;
43519;SDS011;46848;51.980;5.918;2023-12-22T01:15:39;4.73;;;0.83;;
43519;SDS011;46848;51.980;5.918;2023-12-22T01:18:05;6.17;;;1.00;;
43519;SDS011;46848;51.980;5.918;2023-12-22T01:20:31;7.80;;;1.50;;
43519;SDS011;46848;51.980;5.918;2023-12-22T01:22:56;4.17;;;1.17;;
43519;SDS011;46848;51.980;5.918;2023-12-22T01:25:22;3.63;;;0.60;;
43519;SDS011;46848;51.980;5.918;2023-12-22T01:27:48;4.43;;;0.90;;
43519;SDS011;46848;51.980;5.918;2023-12-22T01:30:17;4.17;;;0.80;;
43519;SDS011;46848;51.980;5.918;2023-12-22T01:32:42;4.07;;;1.00;;
43519;SDS011;46848;51.980;5.918;2023-12-22T01:35:08;3.23;;;0.60;;
43519;SDS011;46848;51.980;5.918;2023-12-22T01:37:38;9.37;;;1.23;;
43519;SDS011;46848;51.980;5.918;2023-12-22T01:40:04;2.43;;;0.70;;
43519;SDS011;46848;51.980;5.918;2023-12-22T01:42:30;6.40;;;1.37;;
43519;SDS011;46848;51.980;5.918;2023-12-22T01:44:55;4.13;;;0.90;;
43519;SDS011;46848;51.980;5.918;2023-12-22T01:47:21;5.47;;;0.93;;
43519;SDS011;46848;51.980;5.918;2023-12-22T01:49:47;5.43;;;1.00;;
43519;SDS011;46848;51.980;5.918;2023-12-22T01:52:13;8.53;;;1.50;;
43519;SDS011;46848;51.980;5.918;2023-12-22T01:54:39;6.23;;;1.27;;
43519;SDS011;46848;51.980;5.918;2023-12-22T01:57:05;3.97;;;1.10;;
43519;SDS011;46848;51.980;5.918;2023-12-22T01:59:31;6.70;;;1.70;;
43519;SDS011;46848;51.980;5.918;2023-12-22T02:02:00;4.07;;;0.90;;
43519;SDS011;46848;51.980;5.918;2023-12-22T02:04:27;7.93;;;1.40;;
43519;SDS011;46848;51.980;5.918;2023-12-22T02:06:55;4.47;;;1.00;;
43519;SDS011;46848;51.980;5.918;2023-12-22T02:09:26;7.07;;;1.30;;
43519;SDS011;46848;51.980;5.918;2023-12-22T02:11:51;3.40;;;0.80;;
43519;SDS011;46848;51.980;5.918;2023-12-22T02:14:17;5.87;;;1.07;;
43519;SDS011;46848;51.980;5.918;2023-12-22T02:17:02;4.87;;;1.20;;
43519;SDS011;46848;51.980;5.918;2023-12-22T02:19:49;5.50;;;1.40;;
43519;SDS011;46848;51.980;5.918;2023-12-22T02:22:16;4.93;;;1.10;;
43519;SDS011;46848;51.980;5.918;2023-12-22T02:24:41;7.20;;;1.17;;
43519;SDS011;46848;51.980;5.918;2023-12-22T02:27:25;8.03;;;1.53;;
43519;SDS011;46848;51.980;5.918;2023-12-22T02:30:18;5.43;;;1.20;;
43519;SDS011;46848;51.980;5.918;2023-12-22T02:33:05;6.87;;;1.10;;
43519;SDS011;46848;51.980;5.918;2023-12-22T02:35:33;7.17;;;1.20;;
43519;SDS011;46848;51.980;5.918;2023-12-22T02:38:01;6.37;;;1.17;;
43519;SDS011;46848;51.980;5.918;2023-12-22T02:40:30;6.73;;;1.47;;
43519;SDS011;46848;51.980;5.918;2023-12-22T02:42:56;10.23;;;1.37;;
43519;SDS011;46848;51.980;5.918;2023-12-22T02:45:22;5.10;;;1.30;;
43519;SDS011;46848;51.980;5.918;2023-12-22T02:47:48;7.17;;;1.50;;
43519;SDS011;46848;51.980;5.918;2023-12-22T02:50:15;7.03;;;1.50;;
43519;SDS011;46848;51.980;5.918;2023-12-22T02:52:41;7.87;;;1.33;;
43519;SDS011;46848;51.980;5.918;2023-12-22T02:55:08;8.63;;;1.43;;
43519;SDS011;46848;51.980;5.918;2023-12-22T02:57:35;5.43;;;1.27;;
43519;SDS011;46848;51.980;5.918;2023-12-22T03:00:01;12.10;;;1.83;;
43519;SDS011;46848;51.980;5.918;2023-12-22T03:02:27;12.73;;;1.83;;
43519;SDS011;46848;51.980;5.918;2023-12-22T03:04:52;7.30;;;1.77;;
43519;SDS011;46848;51.980;5.918;2023-12-22T03:07:18;7.77;;;1.60;;
43519;SDS011;46848;51.980;5.918;2023-12-22T03:09:43;9.47;;;1.53;;
43519;SDS011;46848;51.980;5.918;2023-12-22T03:12:09;8.07;;;1.87;;
43519;SDS011;46848;51.980;5.918;2023-12-22T03:14:36;11.63;;;2.10;;
43519;SDS011;46848;51.980;5.918;2023-12-22T03:17:02;11.00;;;1.80;;
43519;SDS011;46848;51.980;5.918;2023-12-22T03:19:29;7.97;;;1.60;;
43519;SDS011;46848;51.980;5.918;2023-12-22T03:21:55;11.70;;;2.33;;
43519;SDS011;46848;51.980;5.918;2023-12-22T03:24:22;10.27;;;1.83;;
43519;SDS011;46848;51.980;5.918;2023-12-22T03:26:51;8.67;;;2.00;;
43519;SDS011;46848;51.980;5.918;2023-12-22T03:29:17;8.50;;;1.27;;
43519;SDS011;46848;51.980;5.918;2023-12-22T03:31:43;10.47;;;1.27;;
43519;SDS011;46848;51.980;5.918;2023-12-22T03:34:09;5.57;;;1.00;;
43519;SDS011;46848;51.980;5.918;2023-12-22T03:36:37;5.03;;;1.60;;
43519;SDS011;46848;51.980;5.918;2023-12-22T03:39:03;3.90;;;1.07;;
43519;SDS011;46848;51.980;5.918;2023-12-22T03:41:29;5.37;;;1.00;;
43519;SDS011;46848;51.980;5.918;2023-12-22T03:43:55;6.40;;;1.00;;
43519;SDS011;46848;51.980;5.918;2023-12-22T03:46:21;3.83;;;0.70;;
43519;SDS011;46848;51.980;5.918;2023-12-22T03:48:46;4.10;;;0.97;;
43519;SDS011;46848;51.980;5.918;2023-12-22T03:51:12;5.17;;;1.03;;
43519;SDS011;46848;51.980;5.918;2023-12-22T03:53:39;2.70;;;0.77;;
43519;SDS011;46848;51.980;5.918;2023-12-22T03:56:06;6.10;;;1.37;;
43519;SDS011;46848;51.980;5.918;2023-12-22T03:58:32;3.03;;;0.90;;
43519;SDS011;46848;51.980;5.918;2023-12-22T04:00:58;3.93;;;0.60;;
43519;SDS011;46848;51.980;5.918;2023-12-22T04:03:23;3.90;;;0.90;;
43519;SDS011;46848;51.980;5.918;2023-12-22T04:05:49;6.40;;;0.97;;
43519;SDS011;46848;51.980;5.918;2023-12-22T04:08:15;7.03;;;1.03;;
43519;SDS011;46848;51.980;5.918;2023-12-22T04:10:40;3.80;;;0.80;;
43519;SDS011;46848;51.980;5.918;2023-12-22T04:13:06;5.20;;;1.10;;
43519;SDS011;46848;51.980;5.918;2023-12-22T04:15:31;8.97;;;1.20;;
43519;SDS011;46848;51.980;5.918;2023-12-22T04:17:57;4.77;;;0.90;;
43519;SDS011;46848;51.980;5.918;2023-12-22T04:20:22;5.27;;;0.90;;
43519;SDS011;46848;51.980;5.918;2023-12-22T04:22:49;4.47;;;1.10;;
43519;SDS011;46848;51.980;5.918;2023-12-22T04:25:14;3.20;;;0.70;;
43519;SDS011;46848;51.980;5.918;2023-12-22T04:27:41;4.37;;;1.20;;
43519;SDS011;46848;51.980;5.918;2023-12-22T04:30:07;3.43;;;0.50;;
43519;SDS011;46848;51.980;5.918;2023-12-22T04:32:33;5.50;;;0.80;;
43519;SDS011;46848;51.980;5.918;2023-12-22T04:34:58;4.13;;;0.80;;
43519;SDS011;46848;51.980;5.918;2023-12-22T04:37:25;5.23;;;0.90;;
43519;SDS011;46848;51.980;5.918;2023-12-22T04:39:50;6.43;;;1.27;;
43519;SDS011;46848;51.980;5.918;2023-12-22T04:42:16;6.27;;;1.10;;
43519;SDS011;46848;51.980;5.918;2023-12-22T04:44:41;5.90;;;1.53;;
43519;SDS011;46848;51.980;5.918;2023-12-22T04:47:07;7.73;;;2.00;;
43519;SDS011;46848;51.980;5.918;2023-12-22T04:49:33;8.40;;;1.63;;
43519;SDS011;46848;51.980;5.918;2023-12-22T04:51:58;7.87;;;1.30;;
43519;SDS011;46848;51.980;5.918;2023-12-22T04:54:24;5.23;;;1.37;;
43519;SDS011;46848;51.980;5.918;2023-12-22T04:56:49;8.80;;;1.40;;
43519;SDS011;46848;51.980;5.918;2023-12-22T04:59:15;12.33;;;2.00;;
43519;SDS011;46848;51.980;5.918;2023-12-22T05:01:40;10.37;;;1.40;;
43519;SDS011;46848;51.980;5.918;2023-12-22T05:04:07;7.30;;;1.50;;
43519;SDS011;46848;51.980;5.918;2023-12-22T05:06:34;8.47;;;1.90;;
43519;SDS011;46848;51.980;5.918;2023-12-22T05:09:00;8.17;;;1.47;;
43519;SDS011;46848;51.980;5.918;2023-12-22T05:11:25;8.20;;;1.77;;
43519;SDS011;46848;51.980;5.918;2023-12-22T05:13:51;11.20;;;2.53;;
43519;SDS011;46848;51.980;5.918;2023-12-22T05:16:16;6.43;;;1.33;;
43519;SDS011;46848;51.980;5.918;2023-12-22T05:18:42;12.47;;;2.07;;
43519;SDS011;46848;51.980;5.918;2023-12-22T05:21:07;8.43;;;1.60;;
43519;SDS011;46848;51.980;5.918;2023-12-22T05:23:36;11.37;;;2.10;;
43519;SDS011;46848;51.980;5.918;2023-12-22T05:26:02;7.73;;;1.90;;
43519;SDS011;46848;51.980;5.918;2023-12-22T05:28:28;6.23;;;1.50;;
43519;SDS011;46848;51.980;5.918;2023-12-22T05:30:54;6.97;;;1.93;;
43519;SDS011;46848;51.980;5.918;2023-12-22T05:33:19;8.47;;;2.20;;
43519;SDS011;46848;51.980;5.918;2023-12-22T05:35:45;10.30;;;1.53;;
43519;SDS011;46848;51.980;5.918;2023-12-22T05:38:10;10.93;;;1.90;;
43519;SDS011;46848;51.980;5.918;2023-12-22T05:40:36;10.43;;;1.97;;
43519;SDS011;46848;51.980;5.918;2023-12-22T05:43:01;10.00;;;2.13;;
43519;SDS011;46848;51.980;5.918;2023-12-22T05:45:27;9.30;;;1.90;;
43519;SDS011;46848;51.980;5.918;2023-12-22T05:47:53;9.07;;;2.20;;
43519;SDS011;46848;51.980;5.918;2023-12-22T05:50:19;6.77;;;1.60;;
43519;SDS011;46848;51.980;5.918;2023-12-22T05:52:45;6.83;;;1.57;;
43519;SDS011;46848;51.980;5.918;2023-12-22T05:55:10;6.63;;;1.60;;
43519;SDS011;46848;51.980;5.918;2023-12-22T05:57:39;7.53;;;1.90;;
43519;SDS011;46848;51.980;5.918;2023-12-22T06:00:05;10.23;;;2.07;;
43519;SDS011;46848;51.980;5.918;2023-12-22T06:02:32;8.90;;;1.80;;
43519;SDS011;46848;51.980;5.918;2023-12-22T06:04:59;8.87;;;2.10;;
43519;SDS011;46848;51.980;5.918;2023-12-22T06:07:24;12.57;;;2.27;;
43519;SDS011;46848;51.980;5.918;2023-12-22T06:09:51;9.90;;;1.70;;
43519;SDS011;46848;51.980;5.918;2023-12-22T06:12:16;12.70;;;2.57;;
43519;SDS011;46848;51.980;5.918;2023-12-22T06:14:42;8.30;;;2.17;;
43519;SDS011;46848;51.980;5.918;2023-12-22T06:17:08;13.47;;;2.90;;
43519;SDS011;46848;51.980;5.918;2023-12-22T06:19:35;9.63;;;1.80;;
43519;SDS011;46848;51.980;5.918;2023-12-22T06:22:00;11.20;;;2.03;;
43519;SDS011;46848;51.980;5.918;2023-12-22T06:24:26;10.80;;;2.17;;
43519;SDS011;46848;51.980;5.918;2023-12-22T06:26:53;11.67;;;2.23;;
43519;SDS011;46848;51.980;5.918;2023-12-22T06:29:18;9.33;;;1.70;;
43519;SDS011;46848;51.980;5.918;2023-12-22T06:31:44;8.60;;;2.13;;
43519;SDS011;46848;51.980;5.918;2023-12-22T06:34:09;13.67;;;2.27;;
43519;SDS011;46848;51.980;5.918;2023-12-22T06:36:35;12.57;;;2.40;;
43519;SDS011;46848;51.980;5.918;2023-12-22T06:39:01;12.33;;;1.93;;
43519;SDS011;46848;51.980;5.918;2023-12-22T06:41:29;10.37;;;1.70;;
43519;SDS011;46848;51.980;5.918;2023-12-22T06:43:56;8.60;;;2.00;;
43519;SDS011;46848;51.980;5.918;2023-12-22T06:46:23;12.03;;;2.10;;
43519;SDS011;46848;51.980;5.918;2023-12-22T06:48:52;9.37;;;2.13;;
43519;SDS011;46848;51.980;5.918;2023-12-22T06:53:51;13.60;;;2.30;;
43519;SDS011;46848;51.980;5.918;2023-12-22T06:56:21;8.13;;;1.93;;
43519;SDS011;46848;51.980;5.918;2023-12-22T06:58:55;8.27;;;2.00;;
43519;SDS011;46848;51.980;5.918;2023-12-22T07:01:23;7.20;;;1.53;;
43519;SDS011;46848;51.980;5.918;2023-12-22T07:03:56;11.23;;;2.23;;
43519;SDS011;46848;51.980;5.918;2023-12-22T07:06:23;13.40;;;2.50;;
43519;SDS011;46848;51.980;5.918;2023-12-22T07:11:36;9.90;;;2.00;;
43519;SDS011;46848;51.980;5.918;2023-12-22T07:14:05;9.93;;;1.97;;
43519;SDS011;46848;51.980;5.918;2023-12-22T07:16:31;12.40;;;2.00;;
43519;SDS011;46848;51.980;5.918;2023-12-22T07:18:57;14.27;;;2.57;;
43519;SDS011;46848;51.980;5.918;2023-12-22T07:21:23;13.27;;;2.20;;
43519;SDS011;46848;51.980;5.918;2023-12-22T07:23:49;9.50;;;1.80;;
43519;SDS011;46848;51.980;5.918;2023-12-22T07:26:14;15.30;;;2.47;;
43519;SDS011;46848;51.980;5.918;2023-12-22T07:28:40;10.47;;;2.37;;
43519;SDS011;46848;51.980;5.918;2023-12-22T07:31:05;12.77;;;2.33;;
43519;SDS011;46848;51.980;5.918;2023-12-22T07:33:31;11.60;;;2.50;;
43519;SDS011;46848;51.980;5.918;2023-12-22T07:35:57;14.83;;;3.13;;
43519;SDS011;46848;51.980;5.918;2023-12-22T07:38:22;12.97;;;2.90;;
43519;SDS011;46848;51.980;5.918;2023-12-22T07:40:48;16.70;;;3.27;;
43519;SDS011;46848;51.980;5.918;2023-12-22T07:43:14;10.67;;;2.60;;
43519;SDS011;46848;51.980;5.918;2023-12-22T07:45:40;13.70;;;2.77;;
43519;SDS011;46848;51.980;5.918;2023-12-22T07:48:06;13.63;;;2.43;;
43519;SDS011;46848;51.980;5.918;2023-12-22T07:50:32;14.23;;;2.93;;
43519;SDS011;46848;51.980;5.918;2023-12-22T07:52:58;14.13;;;2.73;;
43519;SDS011;46848;51.980;5.918;2023-12-22T07:55:24;13.97;;;3.13;;
43519;SDS011;46848;51.980;5.918;2023-12-22T07:57:50;13.23;;;3.07;;
43519;SDS011;46848;51.980;5.918;2023-12-22T08:00:16;18.13;;;4.53;;
43519;SDS011;46848;51.980;5.918;2023-12-22T08:02:42;14.27;;;3.23;;
43519;SDS011;46848;51.980;5.918;2023-12-22T08:05:08;13.63;;;3.60;;
43519;SDS011;46848;51.980;5.918;2023-12-22T08:07:34;17.53;;;3.07;;
43519;SDS011;46848;51.980;5.918;2023-12-22T08:10:00;15.80;;;3.70;;
43519;SDS011;46848;51.980;5.918;2023-12-22T08:12:27;17.93;;;3.33;;
43519;SDS011;46848;51.980;5.918;2023-12-22T08:14:53;21.83;;;3.67;;
43519;SDS011;46848;51.980;5.918;2023-12-22T08:17:19;15.67;;;3.67;;
43519;SDS011;46848;51.980;5.918;2023-12-22T08:19:46;15.77;;;3.00;;
43519;SDS011;46848;51.980;5.918;2023-12-22T08:22:12;13.40;;;3.47;;
43519;SDS011;46848;51.980;5.918;2023-12-22T08:24:41;12.97;;;3.10;;
43519;SDS011;46848;51.980;5.918;2023-12-22T08:27:06;12.23;;;2.83;;
43519;SDS011;46848;51.980;5.918;2023-12-22T08:29:32;17.13;;;3.63;;
43519;SDS011;46848;51.980;5.918;2023-12-22T08:31:58;12.50;;;2.87;;
43519;SDS011;46848;51.980;5.918;2023-12-22T08:34:25;11.73;;;2.67;;
43519;SDS011;46848;51.980;5.918;2023-12-22T08:36:51;10.93;;;2.30;;
43519;SDS011;46848;51.980;5.918;2023-12-22T08:39:16;10.10;;;2.23;;
43519;SDS011;46848;51.980;5.918;2023-12-22T08:41:42;9.43;;;2.03;;
43519;SDS011;46848;51.980;5.918;2023-12-22T08:44:08;11.17;;;2.30;;
43519;SDS011;46848;51.980;5.918;2023-12-22T08:46:34;11.77;;;2.53;;
43519;SDS011;46848;51.980;5.918;2023-12-22T08:49:00;13.80;;;2.63;;
43519;SDS011;46848;51.980;5.918;2023-12-22T08:51:26;15.10;;;2.80;;
43519;SDS011;46848;51.980;5.918;2023-12-22T08:53:52;12.00;;;2.63;;
43519;SDS011;46848;51.980;5.918;2023-12-22T08:56:20;17.13;;;2.73;;
43519;SDS011;46848;51.980;5.918;2023-12-22T08:58:50;15.53;;;2.73;;
43519;SDS011;46848;51.980;5.918;2023-12-22T09:01:17;15.33;;;3.13;;
43519;SDS011;46848;51.980;5.918;2023-12-22T09:03:43;13.30;;;3.00;;
43519;SDS011;46848;51.980;5.918;2023-12-22T09:06:15;19.87;;;3.50;;
43519;SDS011;46848;51.980;5.918;2023-12-22T09:08:41;13.93;;;2.93;;
43519;SDS011;46848;51.980;5.918;2023-12-22T09:11:07;12.80;;;2.50;;
43519;SDS011;46848;51.980;5.918;2023-12-22T09:13:33;10.97;;;2.43;;
43519;SDS011;46848;51.980;5.918;2023-12-22T09:16:00;14.37;;;3.13;;
43519;SDS011;46848;51.980;5.918;2023-12-22T09:18:27;9.03;;;2.30;;
43519;SDS011;46848;51.980;5.918;2023-12-22T09:20:53;10.50;;;2.93;;
43519;SDS011;46848;51.980;5.918;2023-12-22T09:23:18;10.20;;;2.23;;
43519;SDS011;46848;51.980;5.918;2023-12-22T09:25:45;10.10;;;2.23;;
43519;SDS011;46848;51.980;5.918;2023-12-22T09:28:10;9.43;;;2.07;;
43519;SDS011;46848;51.980;5.918;2023-12-22T09:30:37;8.33;;;1.73;;
43519;SDS011;46848;51.980;5.918;2023-12-22T09:33:03;9.03;;;2.40;;
43519;SDS011;46848;51.980;5.918;2023-12-22T09:35:29;8.97;;;2.20;;
43519;SDS011;46848;51.980;5.918;2023-12-22T09:37:54;12.70;;;2.63;;
43519;SDS011;46848;51.980;5.918;2023-12-22T09:40:20;7.37;;;1.43;;
43519;SDS011;46848;51.980;5.918;2023-12-22T09:42:47;6.83;;;1.57;;
43519;SDS011;46848;51.980;5.918;2023-12-22T09:45:13;9.93;;;1.80;;
43519;SDS011;46848;51.980;5.918;2023-12-22T09:47:44;7.60;;;1.42;;
43519;SDS011;46848;51.980;5.918;2023-12-22T09:50:11;6.70;;;1.90;;
43519;SDS011;46848;51.980;5.918;2023-12-22T09:52:38;9.10;;;1.67;;
43519;SDS011;46848;51.980;5.918;2023-12-22T09:55:07;6.77;;;1.80;;
43519;SDS011;46848;51.980;5.918;2023-12-22T09:57:33;8.27;;;1.63;;
43519;SDS011;46848;51.980;5.918;2023-12-22T09:59:59;5.07;;;1.00;;
43519;SDS011;46848;51.980;5.918;2023-12-22T10:02:31;3.22;;;0.73;;
43519;SDS011;46848;51.980;5.918;2023-12-22T10:04:58;4.67;;;0.97;;
43519;SDS011;46848;51.980;5.918;2023-12-22T10:07:24;4.23;;;0.97;;
43519;SDS011;46848;51.980;5.918;2023-12-22T10:09:51;3.87;;;0.70;;
43519;SDS011;46848;51.980;5.918;2023-12-22T10:12:18;2.13;;;0.70;;
43519;SDS011;46848;51.980;5.918;2023-12-22T10:14:45;3.50;;;0.60;;
43519;SDS011;46848;51.980;5.918;2023-12-22T10:17:12;4.00;;;0.70;;
43519;SDS011;46848;51.980;5.918;2023-12-22T10:19:38;3.17;;;0.70;;
43519;SDS011;46848;51.980;5.918;2023-12-22T10:22:04;2.13;;;0.50;;
43519;SDS011;46848;51.980;5.918;2023-12-22T10:24:41;3.80;;;0.70;;
43519;SDS011;46848;51.980;5.918;2023-12-22T10:27:08;4.70;;;1.17;;
43519;SDS011;46848;51.980;5.918;2023-12-22T10:29:35;5.17;;;0.63;;
43519;SDS011;46848;51.980;5.918;2023-12-22T10:32:01;4.63;;;0.97;;
43519;SDS011;46848;51.980;5.918;2023-12-22T10:34:28;3.40;;;0.70;;
43519;SDS011;46848;51.980;5.918;2023-12-22T10:36:53;3.47;;;0.90;;
43519;SDS011;46848;51.980;5.918;2023-12-22T10:39:19;5.07;;;1.30;;
43519;SDS011;46848;51.980;5.918;2023-12-22T10:41:46;7.50;;;1.00;;
43519;SDS011;46848;51.980;5.918;2023-12-22T10:44:12;4.33;;;1.10;;
43519;SDS011;46848;51.980;5.918;2023-12-22T10:46:39;5.57;;;0.93;;
43519;SDS011;46848;51.980;5.918;2023-12-22T10:49:05;3.07;;;0.87;;
43519;SDS011;46848;51.980;5.918;2023-12-22T10:51:32;4.10;;;1.00;;
43519;SDS011;46848;51.980;5.918;2023-12-22T10:53:58;7.03;;;1.40;;
43519;SDS011;46848;51.980;5.918;2023-12-22T10:56:24;6.07;;;1.23;;
43519;SDS011;46848;51.980;5.918;2023-12-22T10:58:50;5.93;;;1.17;;
43519;SDS011;46848;51.980;5.918;2023-12-22T11:01:20;3.33;;;0.90;;
43519;SDS011;46848;51.980;5.918;2023-12-22T11:03:50;4.43;;;1.02;;
43519;SDS011;46848;51.980;5.918;2023-12-22T11:06:16;4.80;;;1.23;;
43519;SDS011;46848;51.980;5.918;2023-12-22T11:08:45;5.57;;;1.17;;
43519;SDS011;46848;51.980;5.918;2023-12-22T11:11:16;5.60;;;1.27;;
43519;SDS011;46848;51.980;5.918;2023-12-22T11:13:54;5.93;;;1.33;;
43519;SDS011;46848;51.980;5.918;2023-12-22T11:16:22;4.32;;;1.00;;
43519;SDS011;46848;51.980;5.918;2023-12-22T11:18:49;4.43;;;0.70;;
43519;SDS011;46848;51.980;5.918;2023-12-22T11:21:20;3.17;;;0.80;;
43519;SDS011;46848;51.980;5.918;2023-12-22T11:23:47;4.27;;;0.90;;
43519;SDS011;46848;51.980;5.918;2023-12-22T11:26:15;5.20;;;1.43;;
43519;SDS011;46848;51.980;5.918;2023-12-22T11:28:42;7.47;;;1.30;;
43519;SDS011;46848;51.980;5.918;2023-12-22T11:31:10;6.45;;;1.40;;
43519;SDS011;46848;51.980;5.918;2023-12-22T11:33:36;5.32;;;1.13;;
43519;SDS011;46848;51.980;5.918;2023-12-22T11:36:03;6.30;;;1.42;;
43519;SDS011;46848;51.980;5.918;2023-12-22T11:38:30;8.53;;;2.30;;
43519;SDS011;46848;51.980;5.918;2023-12-22T11:40:56;10.90;;;1.92;;
43519;SDS011;46848;51.980;5.918;2023-12-22T11:43:24;8.02;;;1.63;;
43519;SDS011;46848;51.980;5.918;2023-12-22T11:45:52;5.78;;;1.75;;
43519;SDS011;46848;51.980;5.918;2023-12-22T11:48:17;9.35;;;2.28;;
43519;SDS011;46848;51.980;5.918;2023-12-22T11:50:43;7.05;;;1.65;;
43519;SDS011;46848;51.980;5.918;2023-12-22T11:53:19;5.80;;;1.27;;
43519;SDS011;46848;51.980;5.918;2023-12-22T11:56:01;5.70;;;1.58;;
43519;SDS011;46848;51.980;5.918;2023-12-22T12:01:01;7.40;;;1.30;;
43519;SDS011;46848;51.980;5.918;2023-12-22T12:03:30;5.97;;;1.30;;
43519;SDS011;46848;51.980;5.918;2023-12-22T12:06:11;8.20;;;1.42;;
43519;SDS011;46848;51.980;5.918;2023-12-22T12:08:51;4.13;;;1.15;;
43519;SDS011;46848;51.980;5.918;2023-12-22T12:11:18;6.93;;;1.20;;
43519;SDS011;46848;51.980;5.918;2023-12-22T12:13:45;7.57;;;1.52;;
43519;SDS011;46848;51.980;5.918;2023-12-22T12:16:12;8.93;;;2.30;;
43519;SDS011;46848;51.980;5.918;2023-12-22T12:18:38;5.75;;;1.80;;
43519;SDS011;46848;51.980;5.918;2023-12-22T12:21:06;7.00;;;1.70;;
43519;SDS011;46848;51.980;5.918;2023-12-22T12:23:33;6.35;;;1.58;;
43519;SDS011;46848;51.980;5.918;2023-12-22T12:25:59;7.97;;;2.42;;
43519;SDS011;46848;51.980;5.918;2023-12-22T12:28:26;7.97;;;2.65;;
43519;SDS011;46848;51.980;5.918;2023-12-22T12:30:56;9.32;;;2.33;;
43519;SDS011;46848;51.980;5.918;2023-12-22T12:33:26;11.57;;;2.97;;
43519;SDS011;46848;51.980;5.918;2023-12-22T12:35:53;7.40;;;2.28;;
43519;SDS011;46848;51.980;5.918;2023-12-22T12:38:22;11.10;;;2.72;;
43519;SDS011;46848;51.980;5.918;2023-12-22T12:41:00;5.13;;;1.43;;
43519;SDS011;46848;51.980;5.918;2023-12-22T12:43:30;6.50;;;1.85;;
43519;SDS011;46848;51.980;5.918;2023-12-22T12:46:02;7.45;;;1.60;;
43519;SDS011;46848;51.980;5.918;2023-12-22T12:48:31;6.30;;;1.42;;
43519;SDS011;46848;51.980;5.918;2023-12-22T12:51:01;7.88;;;1.48;;
43519;SDS011;46848;51.980;5.918;2023-12-22T12:53:29;6.43;;;1.45;;
43519;SDS011;46848;51.980;5.918;2023-12-22T12:55:59;9.23;;;1.50;;
43519;SDS011;46848;51.980;5.918;2023-12-22T12:58:29;7.55;;;1.80;;
43519;SDS011;46848;51.980;5.918;2023-12-22T13:01:06;6.07;;;1.35;;
43519;SDS011;46848;51.980;5.918;2023-12-22T13:03:53;5.57;;;1.50;;
43519;SDS011;46848;51.980;5.918;2023-12-22T13:06:19;5.60;;;1.17;;
43519;SDS011;46848;51.980;5.918;2023-12-22T13:08:47;7.40;;;2.35;;
43519;SDS011;46848;51.980;5.918;2023-12-22T13:11:20;7.85;;;1.30;;
43519;SDS011;46848;51.980;5.918;2023-12-22T13:13:46;4.70;;;1.13;;
43519;SDS011;46848;51.980;5.918;2023-12-22T13:16:12;8.00;;;1.38;;
43519;SDS011;46848;51.980;5.918;2023-12-22T13:18:38;8.18;;;1.27;;
43519;SDS011;46848;51.980;5.918;2023-12-22T13:21:04;6.30;;;1.25;;
43519;SDS011;46848;51.980;5.918;2023-12-22T13:23:30;6.47;;;1.00;;
43519;SDS011;46848;51.980;5.918;2023-12-22T13:25:56;8.68;;;1.42;;
43519;SDS011;46848;51.980;5.918;2023-12-22T13:28:25;6.78;;;1.00;;
43519;SDS011;46848;51.980;5.918;2023-12-22T13:30:52;9.27;;;1.98;;
43519;SDS011;46848;51.980;5.918;2023-12-22T13:33:19;5.28;;;0.95;;
43519;SDS011;46848;51.980;5.918;2023-12-22T13:35:44;8.75;;;1.70;;
43519;SDS011;46848;51.980;5.918;2023-12-22T13:38:11;4.78;;;1.45;;
43519;SDS011;46848;51.980;5.918;2023-12-22T13:40:37;8.93;;;1.60;;
43519;SDS011;46848;51.980;5.918;2023-12-22T13:43:03;9.77;;;1.77;;
43519;SDS011;46848;51.980;5.918;2023-12-22T13:45:30;7.90;;;1.80;;
43519;SDS011;46848;51.980;5.918;2023-12-22T13:47:56;4.25;;;1.40;;
43519;SDS011;46848;51.980;5.918;2023-12-22T13:50:22;7.93;;;1.20;;
43519;SDS011;46848;51.980;5.918;2023-12-22T13:52:49;7.18;;;1.40;;
43519;SDS011;46848;51.980;5.918;2023-12-22T13:55:16;6.22;;;1.08;;
43519;SDS011;46848;51.980;5.918;2023-12-22T13:57:43;8.50;;;1.38;;
43519;SDS011;46848;51.980;5.918;2023-12-22T14:02:48;3.72;;;1.20;;
43519;SDS011;46848;51.980;5.918;2023-12-22T14:05:14;3.85;;;1.02;;
43519;SDS011;46848;51.980;5.918;2023-12-22T14:07:40;8.25;;;1.60;;
43519;SDS011;46848;51.980;5.918;2023-12-22T14:10:09;7.83;;;1.20;;
43519;SDS011;46848;51.980;5.918;2023-12-22T14:12:36;6.07;;;1.23;;
43519;SDS011;46848;51.980;5.918;2023-12-22T14:15:08;8.15;;;1.35;;
43519;SDS011;46848;51.980;5.918;2023-12-22T14:17:35;6.15;;;1.00;;
43519;SDS011;46848;51.980;5.918;2023-12-22T14:20:00;5.22;;;1.10;;
43519;SDS011;46848;51.980;5.918;2023-12-22T14:22:26;7.05;;;1.27;;
43519;SDS011;46848;51.980;5.918;2023-12-22T14:24:52;9.57;;;1.40;;
43519;SDS011;46848;51.980;5.918;2023-12-22T14:27:18;6.03;;;1.40;;
43519;SDS011;46848;51.980;5.918;2023-12-22T14:29:44;7.63;;;1.35;;
43519;SDS011;46848;51.980;5.918;2023-12-22T14:32:10;6.83;;;1.30;;
43519;SDS011;46848;51.980;5.918;2023-12-22T14:34:37;5.60;;;1.13;;
43519;SDS011;46848;51.980;5.918;2023-12-22T14:37:03;6.87;;;1.23;;
43519;SDS011;46848;51.980;5.918;2023-12-22T14:39:29;7.57;;;1.10;;
43519;SDS011;46848;51.980;5.918;2023-12-22T14:41:56;6.43;;;1.20;;
43519;SDS011;46848;51.980;5.918;2023-12-22T14:44:22;9.45;;;1.40;;
43519;SDS011;46848;51.980;5.918;2023-12-22T14:46:47;10.88;;;1.48;;
43519;SDS011;46848;51.980;5.918;2023-12-22T14:49:13;6.03;;;1.10;;
43519;SDS011;46848;51.980;5.918;2023-12-22T14:51:39;5.07;;;1.30;;
43519;SDS011;46848;51.980;5.918;2023-12-22T14:54:06;9.13;;;2.55;;